Time;durP1;ratioP1;P1;durP2;ratioP2;P2;SDS_P1;SDS_P2;PMS_P1;PMS_P2;Temp;Humidity;BMP_temperature;BMP_pressure;BME280_temperature;BME280_humidity;BME280_pressure;Samples;Min_cycle;Max_cycle;Signal;HPM_P1;HPM_P2
2022/11/11 00:02:29;;;;;;;40.25;20.82;;;;;;;5.53;100.00;100121.22;2136319;83;20983;-87
2022/11/11 00:05:30;;;;;;;37.70;20.57;;;;;;;5.53;100.00;100125.59;2136217;83;20998;-87
2022/11/11 00:08:31;;;;;;;36.73;17.32;;;;;;;5.52;100.00;100122.16;2136400;83;21530;-87
2022/11/11 00:11:32;;;;;;;28.32;17.42;;;;;;;5.51;100.00;100126.17;2136331;83;20978;-88
2022/11/11 00:14:33;;;;;;;32.00;18.60;;;;;;;5.48;100.00;100124.61;2136386;83;21003;-88
2022/11/11 00:27:31;;;;;;;41.58;20.92;;;;;;;5.43;100.00;100137.12;2136315;83;21126;-87
2022/11/11 00:30:31;;;;;;;39.33;20.45;;;;;;;5.41;100.00;100138.54;2137954;83;20987;-86
2022/11/11 00:33:32;;;;;;;40.35;20.65;;;;;;;5.42;100.00;100142.80;2139036;83;21034;-86
2022/11/11 00:36:33;;;;;;;39.58;20.68;;;;;;;5.44;100.00;100146.57;2137047;83;21027;-87
2022/11/11 00:39:34;;;;;;;41.45;21.85;;;;;;;5.46;100.00;100149.88;2136530;83;21010;-86
2022/11/11 00:42:34;;;;;;;35.17;20.82;;;;;;;5.53;100.00;100149.80;2136352;83;21054;-86
2022/11/11 00:45:35;;;;;;;28.57;19.25;;;;;;;5.60;100.00;100139.31;2136284;83;20986;-86
2022/11/11 00:51:55;;;;;;;29.65;18.95;;;;;;;5.79;100.00;100132.28;2136345;83;21126;-86
2022/11/11 00:54:55;;;;;;;33.55;21.50;;;;;;;5.90;100.00;100128.44;2136482;83;20999;-88
2022/11/11 00:57:56;;;;;;;36.45;21.87;;;;;;;5.95;100.00;100128.93;2136313;83;21034;-86
2022/11/11 01:00:57;;;;;;;28.38;21.80;;;;;;;5.99;100.00;100121.23;2136247;83;21012;-87
2022/11/11 01:03:58;;;;;;;30.27;19.70;;;;;;;6.08;100.00;100121.02;2136512;83;21006;-85
2022/11/11 01:06:58;;;;;;;33.40;20.30;;;;;;;6.13;100.00;100123.28;2136241;83;21071;-86
2022/11/11 01:09:59;;;;;;;34.25;20.30;;;;;;;6.17;100.00;100112.98;2136506;83;20971;-86
2022/11/11 01:13:10;;;;;;;31.95;18.50;;;;;;;6.19;100.00;100109.31;2136459;83;21070;-85
2022/11/11 01:16:02;;;;;;;30.92;20.55;;;;;;;6.20;100.00;100109.66;2134477;83;21525;-86
2022/11/11 01:19:03;;;;;;;34.45;20.10;;;;;;;6.25;100.00;100116.66;2137551;83;20991;-87
2022/11/11 01:22:04;;;;;;;33.10;20.02;;;;;;;6.30;100.00;100112.86;2137816;83;20983;-85
2022/11/11 01:25:05;;;;;;;34.15;21.48;;;;;;;6.34;100.00;100124.23;2138299;83;21015;-85
2022/11/11 01:28:05;;;;;;;32.35;19.60;;;;;;;6.37;100.00;100120.55;2136893;83;20998;-85
2022/11/11 01:31:06;;;;;;;37.83;20.77;;;;;;;6.43;100.00;100111.81;2136931;83;21552;-85
2022/11/11 01:34:07;;;;;;;31.77;19.95;;;;;;;6.49;100.00;100120.89;2138140;83;21325;-86
2022/11/11 01:37:07;;;;;;;30.65;20.02;;;;;;;6.52;100.00;100119.38;2139437;81;21022;-84
2022/11/11 01:40:08;;;;;;;28.57;18.60;;;;;;;6.56;100.00;100117.70;2138208;83;21098;-86
2022/11/11 01:43:09;;;;;;;28.65;18.67;;;;;;;6.60;100.00;100107.90;2136297;83;20945;-86
2022/11/11 01:46:09;;;;;;;31.05;20.15;;;;;;;6.61;100.00;100113.45;2136345;83;21007;-86
2022/11/11 01:49:19;;;;;;;24.35;18.00;;;;;;;6.60;100.00;100115.70;2105142;83;21031;-86
2022/11/11 01:52:20;;;;;;;26.90;18.95;;;;;;;6.63;100.00;100125.05;2102184;85;22101;-86
2022/11/11 01:55:21;;;;;;;30.68;17.27;;;;;;;6.63;100.00;100112.03;2089962;85;21007;-85
2022/11/11 01:58:21;;;;;;;25.77;17.95;;;;;;;6.66;100.00;100119.58;2102085;84;20976;-86
2022/11/11 02:01:22;;;;;;;33.38;18.60;;;;;;;6.65;100.00;100122.66;2102352;85;21558;-85
2022/11/11 02:07:42;;;;;;;27.93;18.12;;;;;;;6.65;100.00;100125.27;2102241;85;21034;-87
2022/11/11 02:10:43;;;;;;;28.30;17.55;;;;;;;6.65;100.00;100130.47;2103667;85;20975;-86
2022/11/11 02:17:04;;;;;;;25.80;17.30;;;;;;;6.68;100.00;100139.36;2102766;85;21578;-87
2022/11/11 02:20:04;;;;;;;24.65;17.15;;;;;;;6.71;100.00;100135.20;2102143;83;21069;-86
2022/11/11 02:23:05;;;;;;;28.57;17.05;;;;;;;6.73;100.00;100130.70;2102259;84;20995;-87
2022/11/11 02:26:06;;;;;;;22.85;15.83;;;;;;;6.75;100.00;100137.91;2102195;84;21556;-88
2022/11/11 02:29:07;;;;;;;24.90;16.87;;;;;;;6.79;100.00;100132.01;2102250;84;21568;-86
2022/11/11 02:32:07;;;;;;;26.57;16.52;;;;;;;6.81;100.00;100135.31;2104485;84;21558;-86
2022/11/11 02:35:08;;;;;;;24.80;17.23;;;;;;;6.81;100.00;100136.14;2104350;85;21105;-86
2022/11/11 02:38:10;;;;;;;25.57;16.85;;;;;;;6.89;100.00;100136.84;2102176;85;21046;-87
2022/11/11 02:44:30;;;;;;;27.32;17.75;;;;;;;6.94;100.00;100132.55;2102708;85;21514;-87
2022/11/11 02:47:31;;;;;;;21.35;16.05;;;;;;;6.98;100.00;100132.20;2111019;83;21011;-87
2022/11/11 02:50:31;;;;;;;24.52;15.95;;;;;;;7.04;100.00;100124.36;2136345;83;20971;-86
2022/11/11 02:53:32;;;;;;;21.37;15.90;;;;;;;7.05;100.00;100119.53;2136388;83;21030;-86
2022/11/11 02:59:52;;;;;;;27.48;17.48;;;;;;;7.05;100.00;100122.95;2136400;83;21106;-87
2022/11/11 03:02:53;;;;;;;26.05;17.87;;;;;;;7.05;100.00;100126.86;2136317;83;20999;-87
2022/11/11 03:05:54;;;;;;;26.42;16.93;;;;;;;7.07;100.00;100119.75;2136285;83;22038;-88
2022/11/11 03:08:54;;;;;;;25.20;15.45;;;;;;;7.09;100.00;100123.53;2136437;83;21085;-86
2022/11/11 03:11:55;;;;;;;24.52;15.98;;;;;;;7.09;100.00;100123.05;2136345;83;20990;-86
2022/11/11 03:14:56;;;;;;;26.17;15.05;;;;;;;7.07;100.00;100126.73;2136384;82;21014;-88
2022/11/11 03:17:57;;;;;;;27.65;16.70;;;;;;;7.06;100.00;100126.39;2136533;83;21030;-87
2022/11/11 03:21:03;;;;;;;22.22;16.23;;;;;;;7.06;100.00;100128.99;2137992;83;21006;-87
2022/11/11 03:24:04;;;;;;;24.23;16.93;;;;;;;7.05;100.00;100139.06;2137273;83;21603;-86
2022/11/11 03:27:05;;;;;;;22.75;16.87;;;;;;;7.05;100.00;100149.48;2136599;83;20975;-87
2022/11/11 03:30:05;;;;;;;20.12;16.00;;;;;;;7.05;100.00;100152.09;2137227;83;20976;-85
2022/11/11 03:33:06;;;;;;;22.55;15.70;;;;;;;7.07;100.00;100154.09;2138585;82;21026;-85
2022/11/11 03:36:07;;;;;;;24.67;16.42;;;;;;;7.10;100.00;100149.92;2139704;81;21487;-83
2022/11/11 03:39:08;;;;;;;30.37;16.87;;;;;;;7.12;100.00;100150.14;2136798;83;21025;-88
2022/11/11 03:42:09;;;;;;;27.52;16.77;;;;;;;7.14;100.00;100146.14;2136222;83;21066;-84
2022/11/11 03:45:10;;;;;;;26.62;17.48;;;;;;;7.12;100.00;100137.12;2136405;83;21030;-91
2022/11/11 03:48:11;;;;;;;30.43;18.62;;;;;;;7.10;100.00;100129.91;2136070;83;21098;-86
2022/11/11 03:51:11;;;;;;;36.88;22.30;;;;;;;7.05;100.00;100120.35;2136231;83;20955;-86
2022/11/11 03:54:12;;;;;;;33.80;18.67;;;;;;;6.99;100.00;100127.34;2136446;83;20979;-86
2022/11/11 03:57:31;;;;;;;30.97;19.70;;;;;;;6.95;100.00;100130.30;2136271;83;20983;-90
2022/11/11 04:00:32;;;;;;;36.60;20.37;;;;;;;6.93;100.00;100129.59;2136735;83;21369;-88
2022/11/11 04:10:23;;;;;;;36.40;20.65;;;;;;;6.91;100.00;100140.14;2137616;82;21517;-89
2022/11/11 04:16:43;;;;;;;28.95;19.57;;;;;;;6.85;100.00;100138.84;2136877;83;21061;-86
2022/11/11 04:23:03;;;;;;;31.45;19.32;;;;;;;6.87;100.00;100153.06;2136325;83;21047;-96
2022/11/11 04:26:03;;;;;;;30.50;19.25;;;;;;;6.89;100.00;100154.23;2136618;83;20968;-86
2022/11/11 04:32:37;;;;;;;29.25;17.73;;;;;;;6.92;100.00;100155.29;2136704;83;21023;-86
2022/11/11 04:35:38;;;;;;;27.67;18.37;;;;;;;6.93;100.00;100153.86;2136727;83;21078;-90
2022/11/11 04:41:57;;;;;;;34.33;20.15;;;;;;;6.96;100.00;100166.66;2136454;83;21038;-88
2022/11/11 04:48:18;;;;;;;44.73;23.18;;;;;;;6.91;100.00;100176.59;2136313;83;21144;-88
2022/11/11 04:51:19;;;;;;;41.00;24.15;;;;;;;6.90;100.00;100176.25;2136251;83;21083;-85
2022/11/11 04:54:19;;;;;;;39.23;22.13;;;;;;;6.87;100.00;100175.67;2136254;83;20976;-86
2022/11/11 04:57:20;;;;;;;32.70;21.65;;;;;;;6.87;100.00;100166.56;2169643;80;21002;-86
2022/11/11 05:00:21;;;;;;;34.20;20.25;;;;;;;6.90;100.00;100165.00;2180338;80;20985;-85
2022/11/11 05:03:24;;;;;;;33.40;21.25;;;;;;;6.88;100.00;100160.40;2146491;80;20977;-88
2022/11/11 05:09:44;;;;;;;35.10;22.17;;;;;;;6.92;100.00;100171.73;2136618;83;21025;-87
2022/11/11 05:12:44;;;;;;;38.38;21.82;;;;;;;6.95;100.00;100172.82;2136852;83;21524;-87
